createdAt,value
2019-04-29T00:00:54.151Z,4.13
2019-04-29T00:03:26.467Z,3.40
2019-04-29T00:05:58.365Z,3.60
2019-04-29T00:08:30.228Z,3.90
2019-04-29T00:11:05.574Z,3.80
2019-04-29T00:13:37.542Z,3.67
2019-04-29T00:16:40.797Z,4.07
2019-04-29T00:19:36.299Z,4.13
2019-04-29T00:22:08.874Z,4.70
2019-04-29T00:24:41.364Z,4.90
2019-04-29T00:27:13.345Z,4.80
2019-04-29T00:29:45.895Z,5.10
2019-04-29T00:32:17.762Z,4.80
2019-04-29T00:34:49.638Z,4.93
2019-04-29T00:37:39.184Z,4.90
2019-04-29T00:40:32.755Z,4.87
2019-04-29T00:43:11.602Z,4.50
2019-04-29T00:45:43.406Z,4.53
2019-04-29T00:48:15.807Z,4.90
2019-04-29T00:50:47.754Z,4.57
2019-04-29T00:53:20.558Z,4.43
2019-04-29T00:55:53.671Z,4.47
2019-04-29T00:58:26.059Z,4.47
2019-04-29T01:00:57.926Z,4.30
2019-04-29T01:03:29.782Z,4.70
2019-04-29T01:06:01.674Z,4.60
2019-04-29T01:08:33.466Z,4.23
2019-04-29T01:11:05.334Z,4.40
2019-04-29T01:13:37.223Z,4.77
2019-04-29T01:16:09.425Z,4.60
2019-04-29T01:18:41.768Z,4.73
2019-04-29T01:21:13.765Z,4.20
2019-04-29T01:23:45.734Z,4.73
2019-04-29T01:26:51.562Z,4.57
2019-04-29T01:29:24.163Z,4.50
2019-04-29T01:31:56.169Z,5.00
2019-04-29T01:34:33.867Z,5.10
2019-04-29T01:37:06.349Z,4.60
2019-04-29T01:39:47.740Z,5.20
2019-04-29T01:42:24.167Z,5.20
2019-04-29T01:44:56.030Z,4.83
2019-04-29T01:47:28.359Z,4.87
2019-04-29T01:50:00.259Z,5.13
2019-04-29T01:52:32.139Z,4.80
2019-04-29T01:55:03.994Z,5.53
2019-04-29T01:57:35.844Z,5.13
2019-04-29T02:00:12.152Z,5.40
2019-04-29T02:02:43.081Z,5.40
2019-04-29T02:05:15.431Z,5.33
2019-04-29T02:07:47.337Z,5.07
2019-04-29T02:10:25.910Z,5.33
2019-04-29T02:12:57.904Z,5.53
2019-04-29T02:15:30.259Z,5.30
2019-04-29T02:18:02.128Z,5.20
2019-04-29T02:20:34.646Z,5.30
2019-04-29T02:23:31.567Z,5.07
2019-04-29T02:26:03.332Z,5.70
2019-04-29T02:28:36.736Z,5.60
2019-04-29T02:31:26.875Z,6.17
2019-04-29T02:33:59.229Z,5.63
2019-04-29T02:36:31.093Z,5.90
2019-04-29T02:39:30.317Z,5.80
2019-04-29T02:42:21.002Z,6.10
2019-04-29T02:44:53.300Z,6.83
2019-04-29T02:47:25.184Z,6.30
2019-04-29T02:49:57.435Z,6.10
2019-04-29T02:52:29.265Z,5.53
2019-04-29T02:55:03.104Z,7.10
2019-04-29T02:57:45.989Z,6.10
2019-04-29T03:00:37.020Z,7.13
2019-04-29T03:03:17.504Z,7.13
2019-04-29T03:05:52.513Z,6.43
2019-04-29T03:08:24.486Z,5.50
2019-04-29T03:10:56.676Z,5.70
2019-04-29T03:13:28.657Z,5.53
2019-04-29T03:16:00.652Z,6.23
2019-04-29T03:18:34.271Z,5.80
2019-04-29T03:21:26.795Z,5.63
2019-04-29T03:23:58.685Z,8.50
2019-04-29T03:26:31.055Z,6.30
2019-04-29T03:29:02.836Z,6.20
2019-04-29T03:31:39.034Z,6.00
2019-04-29T03:34:09.171Z,6.47
2019-04-29T03:36:41.047Z,6.40
2019-04-29T03:39:12.865Z,6.73
2019-04-29T03:41:46.319Z,6.83
2019-04-29T03:44:27.656Z,6.50
2019-04-29T03:46:59.663Z,6.37
2019-04-29T03:49:32.712Z,6.77
2019-04-29T03:52:04.961Z,7.23
2019-04-29T03:54:37.452Z,6.63
2019-04-29T03:57:11.652Z,6.90
2019-04-29T03:59:44.081Z,7.33
2019-04-29T04:02:27.084Z,7.00
2019-04-29T04:05:17.062Z,7.00
2019-04-29T04:07:56.650Z,7.10
2019-04-29T04:10:28.978Z,6.93
2019-04-29T04:13:01.363Z,6.90
2019-04-29T04:15:33.253Z,6.90
2019-04-29T04:18:14.196Z,6.70
2019-04-29T04:20:46.159Z,6.17
2019-04-29T04:23:18.612Z,7.10
2019-04-29T04:25:51.073Z,6.57
2019-04-29T04:28:39.272Z,6.47
2019-04-29T04:31:11.103Z,6.80
2019-04-29T04:33:43.024Z,6.17
2019-04-29T04:36:14.862Z,6.07
2019-04-29T04:38:46.703Z,6.10
2019-04-29T04:41:18.614Z,5.67
2019-04-29T04:43:51.498Z,5.60
2019-04-29T04:46:23.785Z,6.00
2019-04-29T04:48:56.743Z,5.87
2019-04-29T04:51:28.639Z,6.10
2019-04-29T04:54:03.099Z,5.60
2019-04-29T04:56:35.046Z,6.23
2019-04-29T04:59:29.094Z,6.30
2019-04-29T05:02:02.123Z,5.30
2019-04-29T05:04:34.536Z,5.90
2019-04-29T05:07:06.433Z,5.17
2019-04-29T05:09:39.131Z,5.40
2019-04-29T05:12:13.906Z,5.93
2019-04-29T05:14:44.452Z,5.70
2019-04-29T05:17:18.105Z,5.30
2019-04-29T05:19:50.559Z,5.27
2019-04-29T05:22:24.647Z,5.60
2019-04-29T05:24:56.547Z,5.50
2019-04-29T05:27:28.433Z,5.10
2019-04-29T05:30:02.020Z,5.07
2019-04-29T05:32:39.346Z,5.30
2019-04-29T05:35:20.775Z,5.07
2019-04-29T05:38:02.608Z,4.97
2019-04-29T05:40:41.228Z,4.90
2019-04-29T05:43:15.840Z,5.03
2019-04-29T05:46:01.000Z,5.43
2019-04-29T05:48:35.326Z,5.00
2019-04-29T05:51:27.292Z,4.33
2019-04-29T05:54:00.394Z,4.80
2019-04-29T05:56:32.332Z,5.27
2019-04-29T05:59:04.207Z,4.77
2019-04-29T06:01:36.117Z,4.73
2019-04-29T06:04:11.579Z,5.30
2019-04-29T06:06:42.007Z,4.83
2019-04-29T06:09:16.857Z,4.93
2019-04-29T06:11:48.409Z,4.67
2019-04-29T06:14:22.249Z,4.80
2019-04-29T06:16:57.734Z,4.60
2019-04-29T06:19:27.807Z,4.47
2019-04-29T06:21:59.747Z,4.90
2019-04-29T06:24:32.148Z,4.47
2019-04-29T06:27:03.958Z,5.07
2019-04-29T06:29:36.115Z,4.73
2019-04-29T06:32:07.945Z,4.83
2019-04-29T06:34:41.610Z,5.03
2019-04-29T06:37:13.310Z,4.80
2019-04-29T06:39:45.306Z,5.07
2019-04-29T06:42:19.513Z,5.43
2019-04-29T06:44:50.830Z,5.90
2019-04-29T06:47:24.225Z,4.70
2019-04-29T06:49:56.139Z,5.13
2019-04-29T06:52:28.054Z,4.90
2019-04-29T06:55:00.363Z,5.03
2019-04-29T06:57:33.249Z,4.80
2019-04-29T07:00:06.426Z,5.47
2019-04-29T07:02:38.487Z,5.10
2019-04-29T07:05:10.896Z,4.90
2019-04-29T07:07:43.922Z,4.73
2019-04-29T07:10:21.188Z,4.97
2019-04-29T07:12:50.251Z,4.63
2019-04-29T07:15:22.678Z,4.00
2019-04-29T07:17:54.573Z,4.80
2019-04-29T07:20:27.022Z,4.50
2019-04-29T07:23:00.799Z,4.80
2019-04-29T07:25:34.402Z,4.83
2019-04-29T07:28:06.268Z,4.37
2019-04-29T07:30:59.969Z,4.20
2019-04-29T07:33:13.295Z,4.23
2019-04-29T07:35:47.981Z,4.00
2019-04-29T07:38:18.616Z,4.03
2019-04-29T07:40:50.510Z,4.40
2019-04-29T07:43:22.807Z,4.60
2019-04-29T07:46:11.564Z,4.00
2019-04-29T07:48:43.908Z,4.40
2019-04-29T07:51:16.190Z,4.60
2019-04-29T07:53:48.161Z,4.60
2019-04-29T07:56:20.612Z,4.50
2019-04-29T07:58:53.033Z,4.50
2019-04-29T08:01:26.325Z,4.90
2019-04-29T08:03:59.510Z,4.80
2019-04-29T08:06:32.468Z,4.40
2019-04-29T08:09:07.988Z,4.50
2019-04-29T08:11:40.702Z,4.63
2019-04-29T08:14:13.198Z,4.60
2019-04-29T08:16:45.047Z,4.63
2019-04-29T08:19:16.899Z,4.80
2019-04-29T08:21:49.714Z,5.27
2019-04-29T08:24:22.751Z,5.07
2019-04-29T08:26:54.672Z,5.50
2019-04-29T08:29:30.855Z,5.30
2019-04-29T08:32:02.572Z,5.10
2019-04-29T08:34:34.591Z,5.60
2019-04-29T08:37:06.588Z,5.23
2019-04-29T08:39:38.906Z,5.80
2019-04-29T08:42:16.038Z,5.60
2019-04-29T08:45:13.614Z,5.20
2019-04-29T08:47:46.898Z,5.30
2019-04-29T08:50:19.354Z,6.00
2019-04-29T08:52:51.678Z,5.87
2019-04-29T08:55:26.538Z,5.33
2019-04-29T08:57:57.123Z,5.53
2019-04-29T09:00:28.970Z,5.50
2019-04-29T09:03:01.318Z,5.57
2019-04-29T09:05:33.172Z,5.70
2019-04-29T09:08:06.071Z,5.40
2019-04-29T09:10:38.021Z,5.43
2019-04-29T09:13:09.979Z,5.90
2019-04-29T09:15:42.368Z,5.73
2019-04-29T09:18:14.480Z,5.17
2019-04-29T09:20:47.303Z,5.60
2019-04-29T09:23:22.019Z,5.00
2019-04-29T09:26:15.656Z,5.20
2019-04-29T09:28:49.701Z,5.73
2019-04-29T09:31:23.775Z,5.63
2019-04-29T09:34:06.439Z,5.37
2019-04-29T09:36:30.396Z,4.97
2019-04-29T09:39:02.251Z,4.17
2019-04-29T09:42:03.263Z,4.70
2019-04-29T09:45:00.733Z,4.53
2019-04-29T09:47:35.321Z,4.27
2019-04-29T09:50:07.578Z,4.33
2019-04-29T09:52:39.961Z,4.37
2019-04-29T09:55:12.576Z,4.47
2019-04-29T09:57:44.483Z,4.20
2019-04-29T10:00:27.712Z,4.60
2019-04-29T10:03:05.377Z,4.50
2019-04-29T10:05:43.820Z,4.37
2019-04-29T10:08:16.068Z,4.33
2019-04-29T10:10:48.020Z,4.43
2019-04-29T10:13:19.999Z,4.00
2019-04-29T10:16:17.206Z,4.13
2019-04-29T10:19:08.234Z,4.40
2019-04-29T10:21:40.547Z,4.37
2019-04-29T10:24:14.583Z,4.60
2019-04-29T10:26:46.811Z,4.87
2019-04-29T10:29:25.626Z,5.07
2019-04-29T10:31:56.394Z,4.77
2019-04-29T10:34:31.698Z,5.07
2019-04-29T10:37:02.186Z,5.03
2019-04-29T10:40:12.042Z,5.73
2019-04-29T10:43:02.567Z,5.60
2019-04-29T10:45:43.319Z,6.20
2019-04-29T10:48:26.310Z,6.10
2019-04-29T10:50:59.732Z,6.27
2019-04-29T10:53:31.698Z,6.13
2019-04-29T10:56:05.674Z,6.47
2019-04-29T10:58:38.026Z,6.23
2019-04-29T11:02:24.721Z,6.40
2019-04-29T11:05:02.722Z,5.83
2019-04-29T11:07:38.457Z,6.70
2019-04-29T11:10:25.070Z,6.13
2019-04-29T11:12:52.506Z,7.27
2019-04-29T11:15:29.527Z,6.60
2019-04-29T11:18:03.496Z,6.50
2019-04-29T11:20:37.364Z,6.47
2019-04-29T11:23:36.885Z,7.07
2019-04-29T11:26:32.132Z,7.20
2019-04-29T11:29:06.283Z,7.30
2019-04-29T11:31:38.647Z,5.90
2019-04-29T11:34:20.730Z,6.83
2019-04-29T11:36:52.717Z,6.47
2019-04-29T11:39:24.711Z,6.47
2019-04-29T11:41:59.675Z,6.20
2019-04-29T11:44:32.001Z,6.20
2019-04-29T11:47:04.667Z,6.20
2019-04-29T11:49:55.427Z,6.27
2019-04-29T11:52:29.268Z,6.20
2019-04-29T11:55:01.804Z,4.57
2019-04-29T11:57:41.369Z,3.33
2019-04-29T12:00:34.433Z,3.27
2019-04-29T12:03:09.573Z,3.70
2019-04-29T12:05:45.035Z,4.30
2019-04-29T12:08:18.428Z,4.40
2019-04-29T12:11:05.891Z,4.80
2019-04-29T12:13:31.519Z,4.90
2019-04-29T12:16:10.196Z,5.00
2019-04-29T12:18:53.610Z,4.90
2019-04-29T12:21:33.936Z,5.13
2019-04-29T12:24:07.515Z,4.90
2019-04-29T12:26:43.204Z,5.80
2019-04-29T12:29:18.031Z,5.43
2019-04-29T12:31:58.612Z,5.50
2019-04-29T12:34:55.075Z,5.53
2019-04-29T12:37:44.637Z,5.57
2019-04-29T12:40:38.831Z,5.80
2019-04-29T12:43:32.280Z,5.87
2019-04-29T12:46:22.093Z,5.67
2019-04-29T12:48:54.584Z,6.37
2019-04-29T12:51:27.388Z,6.80
2019-04-29T12:53:59.848Z,7.37
2019-04-29T12:56:36.755Z,6.37
2019-04-29T12:59:09.094Z,6.53
2019-04-29T13:02:14.847Z,7.13
2019-04-29T13:05:14.679Z,6.97
2019-04-29T13:08:14.944Z,6.67
2019-04-29T13:10:52.072Z,7.00
2019-04-29T13:13:24.731Z,7.27
2019-04-29T13:16:20.596Z,7.40
2019-04-29T13:19:19.932Z,7.43
2019-04-29T13:21:48.420Z,7.90
2019-04-29T13:24:25.049Z,8.27
2019-04-29T13:26:54.453Z,8.33
2019-04-29T13:29:27.767Z,8.67
2019-04-29T13:32:01.758Z,8.20
2019-04-29T13:34:38.230Z,8.37
2019-04-29T13:37:18.419Z,8.07
2019-04-29T13:39:44.139Z,8.70
2019-04-29T13:42:17.093Z,9.03
2019-04-29T13:45:05.183Z,8.10
2019-04-29T13:47:35.645Z,7.40
2019-04-29T13:50:23.590Z,8.23
2019-04-29T13:52:49.728Z,8.20
2019-04-29T13:55:46.533Z,9.07
2019-04-29T13:57:56.032Z,8.53
2019-04-29T14:00:46.797Z,7.20
2019-04-29T14:03:26.499Z,8.60
2019-04-29T14:06:04.423Z,8.50
2019-04-29T14:08:32.306Z,9.13
2019-04-29T14:11:04.660Z,9.27
2019-04-29T14:13:38.851Z,9.73
2019-04-29T14:16:11.947Z,10.07
2019-04-29T14:18:48.357Z,10.90
2019-04-29T14:21:18.679Z,10.97
2019-04-29T14:23:50.979Z,8.90
2019-04-29T14:26:22.911Z,7.63
2019-04-29T14:28:54.786Z,7.37
2019-04-29T14:31:30.190Z,8.03
2019-04-29T14:34:06.413Z,8.23
2019-04-29T14:36:38.859Z,8.53
2019-04-29T14:39:12.955Z,9.30
2019-04-29T14:41:50.922Z,9.27
2019-04-29T14:44:41.148Z,9.87
2019-04-29T14:47:38.335Z,9.60
2019-04-29T14:50:15.040Z,9.97
2019-04-29T14:52:44.806Z,10.23
2019-04-29T14:55:20.139Z,11.17
2019-04-29T14:57:52.207Z,10.60
2019-04-29T15:00:47.295Z,10.43
2019-04-29T15:03:23.772Z,9.60
2019-04-29T15:06:07.552Z,8.63
2019-04-29T15:08:40.393Z,8.67
2019-04-29T15:11:31.453Z,9.30
2019-04-29T15:14:02.926Z,9.03
2019-04-29T15:16:49.214Z,8.93
2019-04-29T15:19:48.910Z,8.77
2019-04-29T15:22:31.140Z,10.77
2019-04-29T15:25:03.051Z,10.77
2019-04-29T15:27:35.550Z,10.63
2019-04-29T15:30:09.220Z,11.53
2019-04-29T15:32:41.702Z,11.30
2019-04-29T15:35:14.597Z,10.50
2019-04-29T15:37:46.435Z,10.90
2019-04-29T15:40:20.395Z,9.83
2019-04-29T15:42:54.102Z,10.37
2019-04-29T15:45:28.109Z,19.90
2019-04-29T15:47:59.665Z,14.00
2019-04-29T15:50:32.582Z,11.30
2019-04-29T15:53:05.646Z,9.50
2019-04-29T15:55:41.004Z,10.17
2019-04-29T15:58:13.097Z,9.20
2019-04-29T16:00:45.852Z,11.33
2019-04-29T16:03:23.697Z,11.20
2019-04-29T16:06:27.937Z,11.47
2019-04-29T16:09:07.095Z,12.83
2019-04-29T16:14:36.643Z,12.17
2019-04-29T16:17:09.066Z,10.47
2019-04-29T16:19:42.722Z,12.30
2019-04-29T16:22:22.283Z,11.50
2019-04-29T16:25:04.969Z,12.40
2019-04-29T16:27:33.666Z,12.40
2019-04-29T16:30:06.968Z,12.30
2019-04-29T16:32:48.563Z,11.70
2019-04-29T16:35:35.080Z,11.77
2019-04-29T16:38:11.779Z,11.10
2019-04-29T16:40:48.154Z,10.60
2019-04-29T16:43:39.105Z,11.53
2019-04-29T16:46:23.513Z,11.30
2019-04-29T16:48:55.607Z,10.27
2019-04-29T16:51:27.550Z,10.00
2019-04-29T16:54:00.822Z,11.67
2019-04-29T16:56:33.292Z,11.53
2019-04-29T16:59:09.199Z,11.50
2019-04-29T17:01:41.284Z,12.53
2019-04-29T17:04:23.094Z,12.00
2019-04-29T17:07:11.661Z,12.43
2019-04-29T17:09:58.186Z,12.00
2019-04-29T17:12:38.011Z,11.50
2019-04-29T17:15:24.087Z,11.67
2019-04-29T17:17:43.977Z,13.80
2019-04-29T17:20:16.636Z,12.77
2019-04-29T17:22:49.076Z,12.33
2019-04-29T17:25:21.677Z,12.43
2019-04-29T17:28:12.217Z,12.50
2019-04-29T17:31:12.234Z,12.97
2019-04-29T17:33:50.115Z,12.40
2019-04-29T17:35:13.991Z,11.40
2019-04-29T17:36:23.961Z,12.17
2019-04-29T17:38:54.980Z,12.30
2019-04-29T17:41:26.836Z,14.13
2019-04-29T17:44:20.059Z,12.13
2019-04-29T17:47:11.449Z,12.47
2019-04-29T17:50:06.525Z,13.47
2019-04-29T17:52:36.442Z,13.60
2019-04-29T17:55:15.255Z,12.53
2019-04-29T17:57:56.199Z,12.23
2019-04-29T18:00:56.277Z,13.17
2019-04-29T18:03:51.166Z,14.23
2019-04-29T18:06:29.498Z,14.63
2019-04-29T18:09:27.400Z,14.97
2019-04-29T18:12:02.217Z,14.43
2019-04-29T18:14:40.428Z,13.57
2019-04-29T18:17:10.007Z,13.83
2019-04-29T18:20:00.717Z,13.63
2019-04-29T18:22:52.510Z,13.73
2019-04-29T18:25:36.531Z,13.97
2019-04-29T18:28:07.500Z,14.20
2019-04-29T18:30:39.589Z,15.40
2019-04-29T18:33:12.026Z,14.60
2019-04-29T18:35:46.703Z,14.13
2019-04-29T18:38:19.198Z,29.03
2019-04-29T18:40:51.066Z,14.90
2019-04-29T18:43:24.393Z,14.60
2019-04-29T18:45:59.232Z,15.07
2019-04-29T18:48:30.930Z,14.37
2019-04-29T18:51:05.618Z,13.93
2019-04-29T18:53:37.775Z,13.73
2019-04-29T18:56:10.570Z,15.03
2019-04-29T18:58:46.855Z,16.27
2019-04-29T19:01:19.662Z,15.47
2019-04-29T19:04:16.768Z,16.30
2019-04-29T19:06:46.053Z,16.80
2019-04-29T19:09:20.844Z,15.60
2019-04-29T19:11:53.214Z,16.77
2019-04-29T19:14:28.297Z,16.53
2019-04-29T19:17:01.382Z,15.47
2019-04-29T19:19:35.935Z,16.50
2019-04-29T19:22:09.297Z,16.17
2019-04-29T19:24:41.034Z,15.77
2019-04-29T19:27:15.057Z,15.47
2019-04-29T19:29:47.724Z,16.07
2019-04-29T19:32:23.191Z,16.63
2019-04-29T19:34:57.359Z,16.43
2019-04-29T19:37:34.975Z,16.17
2019-04-29T19:40:02.235Z,16.97
2019-04-29T19:42:39.797Z,16.53
2019-04-29T19:45:14.602Z,16.87
2019-04-29T19:47:52.065Z,16.20
2019-04-29T19:50:21.058Z,16.43
2019-04-29T19:52:53.047Z,15.47
2019-04-29T19:55:27.818Z,15.70
2019-04-29T19:57:59.586Z,14.53
2019-04-29T20:00:32.635Z,14.80
2019-04-29T20:03:20.456Z,14.20
2019-04-29T20:05:46.674Z,14.73
2019-04-29T20:08:37.569Z,14.20
2019-04-29T20:10:58.143Z,13.60
2019-04-29T20:13:31.814Z,14.83
2019-04-29T20:16:27.935Z,15.37
2019-04-29T20:19:16.237Z,14.10
2019-04-29T20:21:46.020Z,15.90
2019-04-29T20:24:23.184Z,14.20
2019-04-29T20:26:52.153Z,14.43
2019-04-29T20:29:27.266Z,14.50
2019-04-29T20:31:58.985Z,14.33
2019-04-29T20:34:31.052Z,14.87
2019-04-29T20:37:05.651Z,15.00
2019-04-29T20:39:37.199Z,14.87
2019-04-29T20:42:10.444Z,15.03
2019-04-29T20:44:45.752Z,14.53
2019-04-29T20:47:22.138Z,14.87
2019-04-29T20:49:50.283Z,14.77
2019-04-29T20:52:41.452Z,14.43
2019-04-29T20:55:15.566Z,14.17
2019-04-29T20:57:47.993Z,14.97
2019-04-29T21:00:24.826Z,14.50
2019-04-29T21:02:54.582Z,13.70
2019-04-29T21:05:27.752Z,13.83
2019-04-29T21:08:03.362Z,14.53
2019-04-29T21:10:37.929Z,14.07
2019-04-29T21:13:30.332Z,12.90
2019-04-29T21:16:30.687Z,13.47
2019-04-29T21:19:17.719Z,12.60
2019-04-29T21:21:50.139Z,12.90
2019-04-29T21:24:21.971Z,13.47
2019-04-29T21:26:55.033Z,14.13
2019-04-29T21:29:28.290Z,14.47
2019-04-29T21:32:01.843Z,14.17
2019-04-29T21:34:41.349Z,14.17
2019-04-29T21:37:25.865Z,14.70
2019-04-29T21:40:18.766Z,15.00
2019-04-29T21:43:08.114Z,13.17
2019-04-29T21:45:39.818Z,13.90
2019-04-29T21:48:12.791Z,13.80
2019-04-29T21:50:44.950Z,13.63
2019-04-29T21:53:16.902Z,14.03
2019-04-29T21:55:49.843Z,14.33
2019-04-29T21:58:22.251Z,14.13
2019-04-29T22:00:59.153Z,13.17
2019-04-29T22:03:31.806Z,14.53
2019-04-29T22:06:04.166Z,14.67
2019-04-29T22:08:36.973Z,14.50
2019-04-29T22:11:08.924Z,14.43
2019-04-29T22:13:40.710Z,14.70
2019-04-29T22:16:15.755Z,14.17
2019-04-29T22:18:51.842Z,15.23
2019-04-29T22:21:21.860Z,14.30
2019-04-29T22:23:55.222Z,14.60
2019-04-29T22:26:29.923Z,14.27
2019-04-29T22:29:03.577Z,15.97
2019-04-29T22:31:38.218Z,15.50
2019-04-29T22:34:10.031Z,14.73
2019-04-29T22:36:43.436Z,15.90
2019-04-29T22:39:21.711Z,15.57
2019-04-29T22:42:19.318Z,15.90
2019-04-29T22:44:52.591Z,16.40
2019-04-29T22:47:24.982Z,16.40
2019-04-29T22:49:58.747Z,16.97
2019-04-29T22:52:31.467Z,18.03
2019-04-29T22:55:05.406Z,16.93
2019-04-29T22:57:37.042Z,16.10
2019-04-29T23:00:09.450Z,16.77
2019-04-29T23:02:43.299Z,16.57
2019-04-29T23:05:15.143Z,16.90
2019-04-29T23:07:47.003Z,16.20
2019-04-29T23:10:24.001Z,16.43
2019-04-29T23:12:56.197Z,17.13
2019-04-29T23:15:27.234Z,16.13
2019-04-29T23:17:59.157Z,16.07
2019-04-29T23:20:53.089Z,16.93
2019-04-29T23:23:33.505Z,16.60
2019-04-29T23:26:05.229Z,17.90
2019-04-29T23:28:37.443Z,17.97
2019-04-29T23:31:10.167Z,16.80
2019-04-29T23:33:42.483Z,17.80
2019-04-29T23:36:15.958Z,17.30
2019-04-29T23:38:48.677Z,18.33
2019-04-29T23:41:25.520Z,18.47
2019-04-29T23:43:59.849Z,17.97
2019-04-29T23:46:34.262Z,18.43
2019-04-29T23:49:06.520Z,18.47
2019-04-29T23:51:38.105Z,19.07
2019-04-29T23:54:09.900Z,19.30
2019-04-29T23:57:09.618Z,19.37
2019-04-29T23:59:48.841Z,18.00
